Time;durP1;ratioP1;P1;durP2;ratioP2;P2;SDS_P1;SDS_P2;PMS_P1;PMS_P2;Temp;Humidity;BMP_temperature;BMP_pressure;BME280_temperature;BME280_humidity;BME280_pressure;Samples;Min_cycle;Max_cycle;Signal;HPM_P1;HPM_P2
2022/10/24 00:00:42;;;;;;;;;;;10.00;99.90;;;;;;5073411;28;19916;-73
2022/10/24 00:03:07;;;;;;;;;;;10.00;99.90;;;;;;5073324;28;20334;-73
2022/10/24 00:05:33;;;;;;;;;;;10.10;99.90;;;;;;5073424;28;19966;-74
2022/10/24 00:07:58;;;;;;;;;;;10.20;99.90;;;;;;5073366;28;19948;-74
2022/10/24 00:10:24;;;;;;;;;;;10.20;99.90;;;;;;5073668;28;19913;-74
2022/10/24 00:12:51;;;;;;;;;;;10.20;99.90;;;;;;5073234;28;19913;-74
2022/10/24 00:15:17;;;;;;;;;;;10.20;99.90;;;;;;5073237;28;19919;-73
2022/10/24 00:17:43;;;;;;;;;;;10.30;99.90;;;;;;5073264;28;19912;-74
2022/10/24 00:20:08;;;;;;;;;;;10.30;99.90;;;;;;5073266;28;19913;-74
2022/10/24 00:22:34;;;;;;;;;;;10.30;99.90;;;;;;5073079;28;19916;-74
2022/10/24 00:25:00;;;;;;;;;;;10.30;99.90;;;;;;5073461;28;19919;-74
2022/10/24 00:27:25;;;;;;;;;;;10.30;99.90;;;;;;5073765;28;20001;-73
2022/10/24 00:29:51;;;;;;;;;;;10.30;99.90;;;;;;5073039;28;20407;-74
2022/10/24 00:32:16;;;;;;;;;;;10.30;99.90;;;;;;5073047;28;19917;-73
2022/10/24 00:34:42;;;;;;;;;;;10.30;99.90;;;;;;5073088;28;19913;-74
2022/10/24 00:37:07;;;;;;;;;;;10.30;99.90;;;;;;5073369;28;19920;-74
2022/10/24 00:39:33;;;;;;;;;;;10.30;99.90;;;;;;5073049;28;19912;-74
2022/10/24 00:41:58;;;;;;;;;;;10.30;99.90;;;;;;5072265;28;20394;-74
2022/10/24 00:44:24;;;;;;;;;;;10.30;99.90;;;;;;5071744;28;20393;-74
2022/10/24 00:46:57;;;;;;;;;;;10.20;99.90;;;;;;5073055;28;19909;-74
2022/10/24 00:49:26;;;;;;;;;;;10.30;99.90;;;;;;5072973;28;20451;-74
2022/10/24 00:51:53;;;;;;;;;;;10.20;99.90;;;;;;5072852;28;19962;-74
2022/10/24 00:54:19;;;;;;;;;;;10.20;99.90;;;;;;5075149;28;19908;-74
2022/10/24 00:56:52;;;;;;;;;;;10.20;99.90;;;;;;5076540;28;19912;-74
2022/10/24 00:59:18;;;;;;;;;;;10.20;99.90;;;;;;5077114;28;19909;-74
2022/10/24 01:01:45;;;;;;;;;;;10.20;99.90;;;;;;5076317;28;19916;-74
2022/10/24 01:04:14;;;;;;;;;;;10.20;99.90;;;;;;5076426;28;19913;-74
2022/10/24 01:06:39;;;;;;;;;;;10.20;99.90;;;;;;5076357;28;19915;-74
2022/10/24 01:09:05;;;;;;;;;;;10.20;99.90;;;;;;5076319;28;19913;-74
2022/10/24 01:11:42;;;;;;;;;;;10.20;99.90;;;;;;5076237;28;19909;-74
2022/10/24 01:14:14;;;;;;;;;;;10.20;99.90;;;;;;5076525;28;19943;-74
2022/10/24 01:16:48;;;;;;;;;;;10.10;99.90;;;;;;5076530;28;19954;-73
2022/10/24 01:19:17;;;;;;;;;;;10.10;99.90;;;;;;5074908;28;19951;-74
2022/10/24 01:21:48;;;;;;;;;;;10.20;99.90;;;;;;5075986;28;19913;-73
2022/10/24 01:24:31;;;;;;;;;;;10.20;99.90;;;;;;5076350;28;20348;-73
2022/10/24 01:27:00;;;;;;;;;;;10.20;99.90;;;;;;5076299;28;19916;-73
2022/10/24 01:29:44;;;;;;;;;;;10.30;99.90;;;;;;5075844;28;19987;-74
2022/10/24 01:32:12;;;;;;;;;;;10.30;99.90;;;;;;5076230;28;20295;-73
2022/10/24 01:34:46;;;;;;;;;;;10.40;99.90;;;;;;5075874;28;19975;-74
2022/10/24 01:37:18;;;;;;;;;;;10.40;99.90;;;;;;5076151;28;19940;-74
2022/10/24 01:39:47;;;;;;;;;;;10.40;99.90;;;;;;5076313;28;19909;-74
2022/10/24 01:42:14;;;;;;;;;;;10.40;99.90;;;;;;5075555;28;19916;-74
2022/10/24 01:44:42;;;;;;;;;;;10.40;99.90;;;;;;5075703;28;20430;-73
2022/10/24 01:47:11;;;;;;;;;;;10.40;99.90;;;;;;5075972;28;20260;-74
2022/10/24 01:49:38;;;;;;;;;;;10.30;99.90;;;;;;5076121;28;19912;-74
2022/10/24 01:52:06;;;;;;;;;;;10.30;99.90;;;;;;5074180;28;20360;-74
2022/10/24 01:54:32;;;;;;;;;;;10.30;99.90;;;;;;5075503;28;19912;-74
2022/10/24 01:56:58;;;;;;;;;;;10.30;99.90;;;;;;5075747;28;19919;-74
2022/10/24 01:59:27;;;;;;;;;;;10.30;99.90;;;;;;5057482;28;19912;-74
2022/10/24 02:02:12;;;;;;;;;;;10.30;99.90;;;;;;5075201;28;20389;-74
2022/10/24 02:04:42;;;;;;;;;;;10.30;99.90;;;;;;5060640;28;19915;-74
2022/10/24 02:07:08;;;;;;;;;;;10.30;99.90;;;;;;5075084;28;19908;-74
2022/10/24 02:09:36;;;;;;;;;;;10.30;99.90;;;;;;5075437;28;20392;-74
2022/10/24 02:12:03;;;;;;;;;;;10.30;99.90;;;;;;5075373;28;19915;-74
2022/10/24 02:14:49;;;;;;;;;;;10.30;99.90;;;;;;5075047;28;19908;-74
2022/10/24 02:17:15;;;;;;;;;;;10.40;99.90;;;;;;5075008;28;19932;-74
2022/10/24 02:19:41;;;;;;;;;;;10.40;99.90;;;;;;5075001;28;20360;-74
2022/10/24 02:22:13;;;;;;;;;;;10.40;99.90;;;;;;5074998;28;19923;-74
2022/10/24 02:24:44;;;;;;;;;;;10.40;99.90;;;;;;5074960;28;20307;-74
2022/10/24 02:27:24;;;;;;;;;;;10.40;99.90;;;;;;5075088;28;20356;-74
2022/10/24 02:30:10;;;;;;;;;;;10.40;99.90;;;;;;5074828;28;19921;-74
2022/10/24 02:32:38;;;;;;;;;;;10.40;99.90;;;;;;5074061;28;19909;-74
2022/10/24 02:35:05;;;;;;;;;;;10.40;99.90;;;;;;5074706;28;19939;-74
2022/10/24 02:37:32;;;;;;;;;;;10.40;99.90;;;;;;5074642;28;20395;-74
2022/10/24 02:39:59;;;;;;;;;;;10.40;99.90;;;;;;5074822;28;20337;-74
2022/10/24 02:42:27;;;;;;;;;;;10.40;99.90;;;;;;5074381;28;19939;-74
2022/10/24 02:44:52;;;;;;;;;;;10.30;99.90;;;;;;5073127;28;19958;-74
2022/10/24 02:47:19;;;;;;;;;;;10.30;99.90;;;;;;5074408;28;19955;-74
2022/10/24 02:49:45;;;;;;;;;;;10.30;99.90;;;;;;5074343;28;19912;-74
2022/10/24 02:52:11;;;;;;;;;;;10.30;99.90;;;;;;5074296;28;19913;-74
2022/10/24 02:54:36;;;;;;;;;;;10.30;99.90;;;;;;5072992;28;19924;-74
2022/10/24 02:57:02;;;;;;;;;;;10.30;99.90;;;;;;5074816;28;20371;-74
2022/10/24 02:59:28;;;;;;;;;;;10.20;99.90;;;;;;5074452;28;19995;-74
2022/10/24 03:01:54;;;;;;;;;;;10.20;99.90;;;;;;5074289;28;20007;-74
2022/10/24 03:04:19;;;;;;;;;;;10.20;99.90;;;;;;5074391;28;19919;-74
2022/10/24 03:06:45;;;;;;;;;;;10.20;99.90;;;;;;5074079;28;19920;-74
2022/10/24 03:09:10;;;;;;;;;;;10.20;99.90;;;;;;5074334;28;19912;-74
2022/10/24 03:11:36;;;;;;;;;;;10.20;99.90;;;;;;5072665;28;19977;-74
2022/10/24 03:14:01;;;;;;;;;;;10.20;99.90;;;;;;5074289;28;19915;-74
2022/10/24 03:16:27;;;;;;;;;;;10.20;99.90;;;;;;5074320;28;19913;-74
2022/10/24 03:18:53;;;;;;;;;;;10.20;99.90;;;;;;5073137;28;19916;-74
2022/10/24 03:21:19;;;;;;;;;;;10.20;99.90;;;;;;5072376;28;19959;-74
2022/10/24 03:23:44;;;;;;;;;;;10.30;99.90;;;;;;5073846;28;19943;-74
2022/10/24 03:26:10;;;;;;;;;;;10.30;99.90;;;;;;5072479;28;19908;-74
2022/10/24 03:28:35;;;;;;;;;;;10.30;99.90;;;;;;5074074;28;19920;-74
2022/10/24 03:31:01;;;;;;;;;;;10.30;99.90;;;;;;5073654;28;20337;-73
2022/10/24 03:33:27;;;;;;;;;;;10.30;99.90;;;;;;5074035;28;20399;-74
2022/10/24 03:35:53;;;;;;;;;;;10.30;99.90;;;;;;5074267;28;19944;-73
2022/10/24 03:38:19;;;;;;;;;;;10.30;99.90;;;;;;5073869;28;19909;-74
2022/10/24 03:40:45;;;;;;;;;;;10.30;99.90;;;;;;5074248;28;19919;-73
2022/10/24 03:43:10;;;;;;;;;;;10.30;99.90;;;;;;5073392;28;20426;-74
2022/10/24 03:45:36;;;;;;;;;;;10.30;99.90;;;;;;5073557;28;19923;-74
2022/10/24 03:48:02;;;;;;;;;;;10.20;99.90;;;;;;5073796;28;19919;-74
2022/10/24 03:50:28;;;;;;;;;;;10.20;99.90;;;;;;5073613;28;20007;-74
2022/10/24 03:52:54;;;;;;;;;;;10.20;99.90;;;;;;5073714;28;20386;-74
2022/10/24 03:55:19;;;;;;;;;;;10.20;99.90;;;;;;5073471;28;20011;-74
2022/10/24 03:57:46;;;;;;;;;;;10.20;99.90;;;;;;5073788;28;19916;-73
2022/10/24 04:00:12;;;;;;;;;;;10.20;99.90;;;;;;5073963;28;19912;-74
2022/10/24 04:02:38;;;;;;;;;;;10.20;99.90;;;;;;5073297;28;19917;-74
2022/10/24 04:05:03;;;;;;;;;;;10.10;99.90;;;;;;5072170;28;20364;-74
2022/10/24 04:07:29;;;;;;;;;;;10.10;99.90;;;;;;5073660;28;19913;-74
2022/10/24 04:09:56;;;;;;;;;;;10.10;99.90;;;;;;5073365;28;19920;-74
2022/10/24 04:12:22;;;;;;;;;;;10.10;99.90;;;;;;5078456;22;20387;-73
2022/10/24 04:14:47;;;;;;;;;;;10.10;99.90;;;;;;5053367;28;19913;-73
2022/10/24 04:17:13;;;;;;;;;;;10.10;99.90;;;;;;5053599;28;19913;-72
2022/10/24 04:19:38;;;;;;;;;;;10.10;99.90;;;;;;5053293;28;19917;-74
2022/10/24 04:22:04;;;;;;;;;;;10.10;99.90;;;;;;5053458;28;19959;-71
2022/10/24 04:24:29;;;;;;;;;;;10.20;99.90;;;;;;5053320;28;19924;-72
2022/10/24 04:26:55;;;;;;;;;;;10.20;99.90;;;;;;5053046;28;20360;-72
2022/10/24 04:29:20;;;;;;;;;;;10.20;99.90;;;;;;5055429;28;20426;-74
2022/10/24 04:31:46;;;;;;;;;;;10.20;99.90;;;;;;5057067;28;20347;-72
2022/10/24 04:34:11;;;;;;;;;;;10.20;99.90;;;;;;5057206;28;20359;-73
2022/10/24 04:36:37;;;;;;;;;;;10.20;99.90;;;;;;5056976;28;20368;-74
2022/10/24 04:39:03;;;;;;;;;;;10.20;99.90;;;;;;5056963;28;20281;-73
2022/10/24 04:41:28;;;;;;;;;;;10.20;99.90;;;;;;5056472;28;19932;-72
2022/10/24 04:43:54;;;;;;;;;;;10.20;99.90;;;;;;5057411;28;19913;-74
2022/10/24 04:46:20;;;;;;;;;;;10.20;99.90;;;;;;5055718;28;19947;-74
2022/10/24 04:48:45;;;;;;;;;;;10.20;99.90;;;;;;5056822;28;19919;-74
2022/10/24 04:51:11;;;;;;;;;;;10.20;99.90;;;;;;5056730;28;19998;-73
2022/10/24 04:53:36;;;;;;;;;;;10.20;99.90;;;;;;5057003;28;19916;-74
2022/10/24 04:56:02;;;;;;;;;;;10.20;99.90;;;;;;5057245;28;19958;-74
2022/10/24 04:58:28;;;;;;;;;;;10.30;99.90;;;;;;5056534;28;19920;-74
2022/10/24 05:00:53;;;;;;;;;;;10.30;99.90;;;;;;5057172;28;19913;-74
2022/10/24 05:03:19;;;;;;;;;;;10.20;99.90;;;;;;5056698;28;19924;-74
2022/10/24 05:05:45;;;;;;;;;;;10.20;99.90;;;;;;5056803;28;19923;-74
2022/10/24 05:08:11;;;;;;;;;;;10.20;99.90;;;;;;5056726;28;19909;-74
2022/10/24 05:10:36;;;;;;;;;;;10.20;99.90;;;;;;5055135;28;19919;-74
2022/10/24 05:13:02;;;;;;;;;;;10.20;99.90;;;;;;5056023;28;19967;-74
2022/10/24 05:15:30;;;;;;;;;;;10.20;99.90;;;;;;5056296;28;19921;-73
2022/10/24 05:17:56;;;;;;;;;;;10.30;99.90;;;;;;5056806;28;19913;-73
2022/10/24 05:20:22;;;;;;;;;;;10.30;99.90;;;;;;5056795;28;19916;-74
2022/10/24 05:22:48;;;;;;;;;;;10.30;99.90;;;;;;5056546;28;20074;-73
2022/10/24 05:25:13;;;;;;;;;;;10.30;99.90;;;;;;5056770;28;19916;-73
2022/10/24 05:27:39;;;;;;;;;;;10.30;99.90;;;;;;5056891;28;19999;-73
2022/10/24 05:30:05;;;;;;;;;;;10.30;99.90;;;;;;5057059;28;20399;-73
2022/10/24 05:32:31;;;;;;;;;;;10.30;99.90;;;;;;5057644;28;19909;-73
2022/10/24 05:34:56;;;;;;;;;;;10.30;99.90;;;;;;5056512;28;19966;-73
2022/10/24 05:37:22;;;;;;;;;;;10.40;99.90;;;;;;5057460;28;19919;-73
2022/10/24 05:39:47;;;;;;;;;;;10.30;99.90;;;;;;5054431;28;20272;-73
2022/10/24 05:42:13;;;;;;;;;;;10.30;99.90;;;;;;5054151;28;19920;-73
2022/10/24 05:44:39;;;;;;;;;;;10.30;99.90;;;;;;5055753;28;20304;-73
2022/10/24 05:47:04;;;;;;;;;;;10.30;99.90;;;;;;5055825;28;19959;-72
2022/10/24 05:49:30;;;;;;;;;;;10.40;99.90;;;;;;5055774;28;19944;-73
2022/10/24 05:51:56;;;;;;;;;;;10.40;99.90;;;;;;5055968;28;19987;-72
2022/10/24 05:54:21;;;;;;;;;;;10.40;99.90;;;;;;5057152;28;20365;-73
2022/10/24 05:56:47;;;;;;;;;;;10.40;99.90;;;;;;5055869;28;19913;-72
2022/10/24 05:59:12;;;;;;;;;;;10.40;99.90;;;;;;5056098;28;20328;-73
2022/10/24 06:01:39;;;;;;;;;;;10.40;99.90;;;;;;5055857;28;19927;-73
2022/10/24 06:04:04;;;;;;;;;;;10.40;99.90;;;;;;5056242;28;19909;-73
2022/10/24 06:06:30;;;;;;;;;;;10.40;99.90;;;;;;5056265;28;19917;-73
2022/10/24 06:08:55;;;;;;;;;;;10.40;99.90;;;;;;5055481;28;19912;-73
2022/10/24 06:11:21;;;;;;;;;;;10.50;99.90;;;;;;5055600;28;19924;-73
2022/10/24 06:13:46;;;;;;;;;;;10.40;99.90;;;;;;5055156;28;19923;-72
2022/10/24 06:16:12;;;;;;;;;;;10.50;99.90;;;;;;5055537;28;19913;-73
2022/10/24 06:18:38;;;;;;;;;;;10.50;99.90;;;;;;5055556;28;20008;-72
2022/10/24 06:21:05;;;;;;;;;;;10.50;99.90;;;;;;5055462;28;19909;-73
2022/10/24 06:23:30;;;;;;;;;;;10.50;99.90;;;;;;5055219;28;19955;-73
2022/10/24 06:25:56;;;;;;;;;;;10.50;99.90;;;;;;5055541;28;19916;-73
2022/10/24 06:28:21;;;;;;;;;;;10.50;99.90;;;;;;5055760;28;19920;-72
2022/10/24 06:30:50;;;;;;;;;;;10.50;99.90;;;;;;5055934;28;19913;-73
2022/10/24 06:33:16;;;;;;;;;;;10.50;99.90;;;;;;5054867;28;20387;-73
2022/10/24 06:35:41;;;;;;;;;;;10.60;99.90;;;;;;5055135;28;19909;-73
2022/10/24 06:38:07;;;;;;;;;;;10.50;99.90;;;;;;5054735;28;20003;-73
2022/10/24 06:40:33;;;;;;;;;;;10.50;99.90;;;;;;5055008;28;19913;-73
2022/10/24 06:42:58;;;;;;;;;;;10.50;99.90;;;;;;5054202;28;19920;-72
2022/10/24 06:45:24;;;;;;;;;;;10.50;99.90;;;;;;5054586;28;19978;-73
2022/10/24 06:47:50;;;;;;;;;;;10.60;99.90;;;;;;5054812;28;19975;-73
2022/10/24 06:50:16;;;;;;;;;;;10.60;99.90;;;;;;5054524;28;19999;-73
2022/10/24 06:52:41;;;;;;;;;;;10.70;99.90;;;;;;5054976;28;19909;-73
2022/10/24 06:55:07;;;;;;;;;;;10.70;99.90;;;;;;5054412;28;19909;-73
2022/10/24 06:57:33;;;;;;;;;;;10.70;99.90;;;;;;5054099;28;19908;-73
2022/10/24 06:59:58;;;;;;;;;;;10.70;99.90;;;;;;5054325;28;20042;-73
2022/10/24 07:02:24;;;;;;;;;;;10.70;99.90;;;;;;5054158;28;20399;-73
2022/10/24 07:04:50;;;;;;;;;;;10.70;99.90;;;;;;5054760;28;19917;-73
2022/10/24 07:07:17;;;;;;;;;;;10.80;99.90;;;;;;5054545;28;19920;-73
2022/10/24 07:09:43;;;;;;;;;;;10.80;99.90;;;;;;5054217;28;20292;-74
2022/10/24 07:12:09;;;;;;;;;;;10.80;99.90;;;;;;5053712;28;20025;-73
2022/10/24 07:14:34;;;;;;;;;;;10.80;99.90;;;;;;5054097;28;20357;-73
2022/10/24 07:17:00;;;;;;;;;;;10.80;99.90;;;;;;5054029;28;19916;-74
2022/10/24 07:19:26;;;;;;;;;;;10.80;99.90;;;;;;5052662;28;19916;-74
2022/10/24 07:21:51;;;;;;;;;;;10.90;99.90;;;;;;5053461;28;19919;-73
2022/10/24 07:24:17;;;;;;;;;;;10.90;99.90;;;;;;5052592;28;20024;-74
2022/10/24 07:26:42;;;;;;;;;;;10.90;99.90;;;;;;5053883;28;19920;-73
2022/10/24 07:29:08;;;;;;;;;;;10.90;99.90;;;;;;5053342;28;19959;-73
2022/10/24 07:31:34;;;;;;;;;;;11.00;99.90;;;;;;5052022;28;19913;-73
2022/10/24 07:34:03;;;;;;;;;;;11.00;99.90;;;;;;5053462;28;19909;-74
2022/10/24 07:36:31;;;;;;;;;;;11.10;99.90;;;;;;5053745;28;20318;-72
2022/10/24 07:38:57;;;;;;;;;;;11.10;99.90;;;;;;5053993;28;19913;-74
2022/10/24 07:41:24;;;;;;;;;;;11.10;99.90;;;;;;5052221;28;19920;-74
2022/10/24 07:43:50;;;;;;;;;;;11.20;99.90;;;;;;5053398;28;19943;-74
2022/10/24 07:46:16;;;;;;;;;;;11.30;99.90;;;;;;5053608;28;19963;-74
2022/10/24 07:48:42;;;;;;;;;;;11.30;99.90;;;;;;5053586;28;19974;-74
2022/10/24 07:51:09;;;;;;;;;;;11.30;99.90;;;;;;5052336;28;19956;-74
2022/10/24 07:53:35;;;;;;;;;;;11.40;99.90;;;;;;5053569;28;20288;-74
2022/10/24 07:56:01;;;;;;;;;;;11.40;99.90;;;;;;5052256;28;19995;-74
2022/10/24 07:58:27;;;;;;;;;;;11.60;99.90;;;;;;5053432;28;19909;-74
2022/10/24 08:00:52;;;;;;;;;;;11.70;99.90;;;;;;5053609;28;20425;-74
2022/10/24 08:03:18;;;;;;;;;;;11.80;99.90;;;;;;5053829;28;20067;-74
2022/10/24 08:05:43;;;;;;;;;;;11.80;99.90;;;;;;5057913;28;19913;-74
2022/10/24 08:08:09;;;;;;;;;;;11.90;99.90;;;;;;5057578;28;19913;-74
2022/10/24 08:10:34;;;;;;;;;;;11.90;99.90;;;;;;5057827;28;19920;-74
2022/10/24 08:13:00;;;;;;;;;;;12.00;99.90;;;;;;5057081;28;19928;-74
2022/10/24 08:15:26;;;;;;;;;;;12.00;99.90;;;;;;5057491;28;20380;-74
2022/10/24 08:17:52;;;;;;;;;;;12.00;99.90;;;;;;5056211;28;19913;-74
2022/10/24 08:20:18;;;;;;;;;;;12.10;99.90;;;;;;5057653;28;19960;-74
2022/10/24 08:22:44;;;;;;;;;;;12.10;99.90;;;;;;5057272;28;19974;-74
2022/10/24 08:25:10;;;;;;;;;;;12.20;99.90;;;;;;5057324;28;19983;-74
2022/10/24 08:27:36;;;;;;;;;;;12.20;99.90;;;;;;5057244;28;19908;-74
2022/10/24 08:30:02;;;;;;;;;;;12.30;99.90;;;;;;5057210;28;19913;-74
2022/10/24 08:32:27;;;;;;;;;;;12.40;99.90;;;;;;5057558;28;19908;-74
2022/10/24 08:34:53;;;;;;;;;;;12.40;99.90;;;;;;5057414;28;19913;-74
2022/10/24 08:37:18;;;;;;;;;;;12.40;99.90;;;;;;5057026;28;19913;-74
2022/10/24 08:39:44;;;;;;;;;;;12.50;99.90;;;;;;5056950;28;19913;-74
2022/10/24 08:42:14;;;;;;;;;;;12.50;99.90;;;;;;5056523;28;20288;-73
2022/10/24 08:44:41;;;;;;;;;;;12.60;99.90;;;;;;5056950;28;19908;-74
2022/10/24 08:47:36;;;;;;;;;;;12.70;99.90;;;;;;5056887;28;19909;-74
2022/10/24 08:50:16;;;;;;;;;;;12.70;99.90;;;;;;5047856;28;19999;-74
2022/10/24 08:52:43;;;;;;;;;;;12.80;99.90;;;;;;5056695;28;19909;-74
2022/10/24 08:55:15;;;;;;;;;;;12.90;99.90;;;;;;5057054;28;19955;-74
2022/10/24 08:57:43;;;;;;;;;;;13.00;99.90;;;;;;5056648;28;20291;-74
2022/10/24 09:00:17;;;;;;;;;;;13.10;99.90;;;;;;5056684;28;19932;-73
2022/10/24 09:02:43;;;;;;;;;;;13.10;99.90;;;;;;5056444;28;20384;-71
2022/10/24 09:05:21;;;;;;;;;;;13.20;99.90;;;;;;5056584;28;19909;-71
2022/10/24 09:07:49;;;;;;;;;;;13.30;99.90;;;;;;5056813;28;20000;-71
2022/10/24 09:10:17;;;;;;;;;;;13.40;99.90;;;;;;5056494;28;20280;-71
2022/10/24 09:12:43;;;;;;;;;;;13.50;99.90;;;;;;5055982;28;19920;-71
2022/10/24 09:15:23;;;;;;;;;;;13.60;99.90;;;;;;5038220;28;19913;-69
2022/10/24 09:17:49;;;;;;;;;;;13.70;99.90;;;;;;5056370;28;19908;-69
2022/10/24 09:20:20;;;;;;;;;;;13.80;99.90;;;;;;5056236;28;19913;-69
2022/10/24 09:22:46;;;;;;;;;;;13.90;99.90;;;;;;5055411;28;20000;-69
2022/10/24 09:25:14;;;;;;;;;;;14.00;99.90;;;;;;5055019;28;19951;-70
2022/10/24 09:27:40;;;;;;;;;;;14.10;99.90;;;;;;5056178;28;19913;-69
2022/10/24 09:30:10;;;;;;;;;;;14.20;99.90;;;;;;5056371;28;19909;-69
2022/10/24 09:32:36;;;;;;;;;;;14.30;99.90;;;;;;5054629;28;19909;-69
2022/10/24 09:35:07;;;;;;;;;;;14.30;99.90;;;;;;5056229;28;19987;-69
2022/10/24 09:37:40;;;;;;;;;;;14.40;99.90;;;;;;5055896;28;19916;-69
2022/10/24 09:40:07;;;;;;;;;;;14.40;99.90;;;;;;5055810;28;19909;-70
2022/10/24 09:42:33;;;;;;;;;;;14.50;99.90;;;;;;5055433;28;19932;-70
2022/10/24 09:44:59;;;;;;;;;;;14.60;99.90;;;;;;5055802;28;19913;-70
2022/10/24 09:47:26;;;;;;;;;;;14.70;99.90;;;;;;5055754;28;20257;-70
2022/10/24 09:49:52;;;;;;;;;;;14.80;99.90;;;;;;5055731;28;20008;-70
2022/10/24 09:52:19;;;;;;;;;;;14.90;99.90;;;;;;5055883;28;19960;-70
2022/10/24 09:54:46;;;;;;;;;;;14.90;99.90;;;;;;5055628;28;19962;-70
2022/10/24 09:57:11;;;;;;;;;;;14.90;99.90;;;;;;5054251;28;20011;-70
2022/10/24 09:59:40;;;;;;;;;;;15.00;99.90;;;;;;5055278;28;19940;-70
2022/10/24 10:02:06;;;;;;;;;;;15.00;99.90;;;;;;5055375;28;19944;-70
2022/10/24 10:04:31;;;;;;;;;;;15.10;99.90;;;;;;5055408;28;19917;-70
2022/10/24 10:06:57;;;;;;;;;;;15.10;99.90;;;;;;5055368;28;20353;-70
2022/10/24 10:09:24;;;;;;;;;;;15.20;99.90;;;;;;5055324;28;20292;-70
2022/10/24 10:11:55;;;;;;;;;;;15.20;99.90;;;;;;5055618;28;20046;-70
2022/10/24 10:14:22;;;;;;;;;;;15.20;99.90;;;;;;5055069;28;19927;-70
2022/10/24 10:16:59;;;;;;;;;;;15.20;99.90;;;;;;5055508;28;20014;-70
2022/10/24 10:19:24;;;;;;;;;;;15.30;99.90;;;;;;5055453;28;19915;-70
2022/10/24 10:21:54;;;;;;;;;;;15.40;99.90;;;;;;5054933;28;19924;-70
2022/10/24 10:24:40;;;;;;;;;;;15.50;99.90;;;;;;5054978;28;19923;-70
2022/10/24 10:27:24;;;;;;;;;;;15.60;99.90;;;;;;5053917;28;19916;-70
2022/10/24 10:30:25;;;;;;;;;;;15.70;99.90;;;;;;5055202;28;19916;-70
2022/10/24 10:33:08;;;;;;;;;;;15.80;99.90;;;;;;5013054;28;19957;-70
2022/10/24 10:35:40;;;;;;;;;;;15.90;99.90;;;;;;5051486;28;19962;-70
2022/10/24 10:38:24;;;;;;;;;;;16.00;99.90;;;;;;5055283;28;19909;-70
2022/10/24 10:40:54;;;;;;;;;;;16.00;99.90;;;;;;5054705;28;19909;-70
2022/10/24 10:43:19;;;;;;;;;;;16.10;99.90;;;;;;5054247;28;19936;-70
2022/10/24 10:45:46;;;;;;;;;;;16.10;99.90;;;;;;5054616;28;20369;-70
2022/10/24 10:48:11;;;;;;;;;;;16.10;99.90;;;;;;5054899;28;19909;-70
2022/10/24 10:50:50;;;;;;;;;;;16.10;99.90;;;;;;5054582;28;19908;-70
2022/10/24 10:53:21;;;;;;;;;;;16.10;99.90;;;;;;5054504;28;19935;-69
2022/10/24 10:55:52;;;;;;;;;;;16.10;99.90;;;;;;5054743;28;19913;-70
2022/10/24 10:58:53;;;;;;;;;;;16.10;99.90;;;;;;5054367;28;19909;-70
2022/10/24 11:01:38;;;;;;;;;;;16.10;99.90;;;;;;5012528;28;19909;-70
2022/10/24 11:04:11;;;;;;;;;;;16.10;99.90;;;;;;5051060;28;19909;-70
2022/10/24 11:06:48;;;;;;;;;;;16.20;99.90;;;;;;5054862;28;20347;-70
2022/10/24 11:09:43;;;;;;;;;;;16.20;99.90;;;;;;5054195;28;19908;-70
2022/10/24 11:12:23;;;;;;;;;;;16.20;99.90;;;;;;5014820;28;19916;-70
2022/10/24 11:14:58;;;;;;;;;;;16.20;99.90;;;;;;5033942;28;19909;-70
2022/10/24 11:17:53;;;;;;;;;;;16.30;99.90;;;;;;5049518;28;20361;-70
2022/10/24 11:20:26;;;;;;;;;;;16.30;99.90;;;;;;5025343;28;20324;-70
2022/10/24 11:22:54;;;;;;;;;;;16.40;99.90;;;;;;5033951;28;19913;-69
2022/10/24 11:25:40;;;;;;;;;;;16.40;99.90;;;;;;5034262;28;20361;-70
2022/10/24 11:28:11;;;;;;;;;;;16.50;99.90;;;;;;5033311;28;20365;-70
2022/10/24 11:30:41;;;;;;;;;;;16.50;99.90;;;;;;5033904;28;19910;-70
2022/10/24 11:33:09;;;;;;;;;;;16.60;99.90;;;;;;5033849;28;19909;-70
2022/10/24 11:35:39;;;;;;;;;;;16.70;99.90;;;;;;5033875;28;20007;-70
2022/10/24 11:38:17;;;;;;;;;;;16.80;99.90;;;;;;5033798;28;19909;-70
2022/10/24 11:40:44;;;;;;;;;;;17.00;99.90;;;;;;5034388;28;20260;-69
2022/10/24 11:43:22;;;;;;;;;;;17.10;99.90;;;;;;5049005;28;19916;-70
2022/10/24 11:45:55;;;;;;;;;;;17.20;99.90;;;;;;5054229;28;19909;-70
2022/10/24 11:48:26;;;;;;;;;;;17.30;99.90;;;;;;5053653;28;20003;-70
2022/10/24 11:50:58;;;;;;;;;;;17.30;99.90;;;;;;5053583;28;20292;-70
2022/10/24 11:53:30;;;;;;;;;;;17.20;99.90;;;;;;5053457;28;19909;-70
2022/10/24 11:56:01;;;;;;;;;;;17.10;99.90;;;;;;5053554;28;19999;-70
2022/10/24 11:58:29;;;;;;;;;;;17.00;99.90;;;;;;5053422;28;19912;-69
2022/10/24 12:01:24;;;;;;;;;;;17.00;99.90;;;;;;5053781;28;19909;-70
2022/10/24 12:04:02;;;;;;;;;;;16.90;99.90;;;;;;5043448;28;19962;-69
2022/10/24 12:06:31;;;;;;;;;;;16.80;99.90;;;;;;5053841;28;20330;-70
2022/10/24 12:09:09;;;;;;;;;;;16.70;99.90;;;;;;5053394;28;19916;-70
2022/10/24 12:11:35;;;;;;;;;;;16.60;99.90;;;;;;5053538;28;19909;-70
2022/10/24 12:14:06;;;;;;;;;;;16.50;99.90;;;;;;5053068;28;19928;-69
2022/10/24 12:16:44;;;;;;;;;;;16.50;99.90;;;;;;5052037;28;19908;-70
2022/10/24 12:19:12;;;;;;;;;;;16.40;99.90;;;;;;5053303;28;19909;-70
2022/10/24 12:21:40;;;;;;;;;;;16.30;99.90;;;;;;5053401;28;19913;-69
2022/10/24 12:24:17;;;;;;;;;;;16.30;99.90;;;;;;5053298;28;19911;-70
2022/10/24 12:26:52;;;;;;;;;;;16.30;99.90;;;;;;5053514;28;19909;-70
2022/10/24 12:29:22;;;;;;;;;;;16.20;99.90;;;;;;5053015;28;19999;-69
2022/10/24 12:31:48;;;;;;;;;;;16.20;99.90;;;;;;5053432;28;19915;-69
2022/10/24 12:34:14;;;;;;;;;;;16.10;99.90;;;;;;5053696;28;19912;-69
2022/10/24 12:37:18;;;;;;;;;;;16.10;99.90;;;;;;5053125;28;19909;-68
2022/10/24 12:39:45;;;;;;;;;;;16.20;99.90;;;;;;5011364;28;19910;-69
2022/10/24 12:42:23;;;;;;;;;;;16.00;99.90;;;;;;5011257;28;20293;-69
2022/10/24 12:45:15;;;;;;;;;;;15.90;99.90;;;;;;5013768;28;20311;-69
2022/10/24 12:47:42;;;;;;;;;;;15.80;99.90;;;;;;5031076;28;19913;-68
2022/10/24 12:50:36;;;;;;;;;;;15.80;99.90;;;;;;5034890;28;20068;-68
2022/10/24 12:53:03;;;;;;;;;;;15.80;99.90;;;;;;5036723;28;20352;-69
2022/10/24 12:55:30;;;;;;;;;;;15.70;99.90;;;;;;5036795;28;19913;-69
2022/10/24 12:57:56;;;;;;;;;;;15.60;99.90;;;;;;5036589;28;20351;-69
2022/10/24 13:00:23;;;;;;;;;;;15.50;99.90;;;;;;5035725;28;19963;-69
2022/10/24 13:03:02;;;;;;;;;;;15.40;99.90;;;;;;5036597;28;20373;-68
2022/10/24 13:05:46;;;;;;;;;;;15.30;99.90;;;;;;5036685;28;19913;-68
2022/10/24 13:08:20;;;;;;;;;;;15.30;99.90;;;;;;5036811;28;19951;-68
2022/10/24 13:10:52;;;;;;;;;;;15.10;99.90;;;;;;5036561;28;19917;-69
2022/10/24 13:13:17;;;;;;;;;;;15.10;99.90;;;;;;5052720;28;19921;-68
2022/10/24 13:15:53;;;;;;;;;;;15.00;99.90;;;;;;5056355;28;20323;-68
2022/10/24 13:18:37;;;;;;;;;;;14.90;99.90;;;;;;5056610;28;19936;-69
2022/10/24 13:21:25;;;;;;;;;;;14.80;99.90;;;;;;5056541;28;19959;-69
2022/10/24 13:23:51;;;;;;;;;;;14.70;99.90;;;;;;5056528;28;20287;-69
2022/10/24 13:26:35;;;;;;;;;;;14.50;99.90;;;;;;5056191;28;19909;-69
2022/10/24 13:29:01;;;;;;;;;;;14.40;99.90;;;;;;5056035;28;20376;-69
2022/10/24 13:31:26;;;;;;;;;;;14.30;99.90;;;;;;5056315;28;19913;-69
2022/10/24 13:34:06;;;;;;;;;;;14.20;99.90;;;;;;5056104;28;19999;-69
2022/10/24 13:36:32;;;;;;;;;;;14.10;99.90;;;;;;5056361;28;20364;-69
2022/10/24 13:38:59;;;;;;;;;;;14.00;99.90;;;;;;5055953;28;20015;-70
2022/10/24 13:41:30;;;;;;;;;;;13.90;99.90;;;;;;5055927;28;19952;-69
2022/10/24 13:44:01;;;;;;;;;;;13.80;99.90;;;;;;5055561;28;19909;-69
2022/10/24 13:46:49;;;;;;;;;;;13.70;99.90;;;;;;5055793;28;19974;-69
2022/10/24 13:49:19;;;;;;;;;;;13.70;99.90;;;;;;5036398;28;20360;-69
2022/10/24 13:51:47;;;;;;;;;;;13.60;99.90;;;;;;5055618;28;19908;-69
2022/10/24 13:54:20;;;;;;;;;;;13.50;99.90;;;;;;5055993;28;19909;-69
2022/10/24 13:56:46;;;;;;;;;;;13.50;99.90;;;;;;5055859;28;19916;-70
2022/10/24 13:59:29;;;;;;;;;;;13.40;99.90;;;;;;5054268;28;19913;-69
2022/10/24 14:01:56;;;;;;;;;;;13.30;99.90;;;;;;5054261;28;19912;-69
2022/10/24 14:04:22;;;;;;;;;;;13.20;99.90;;;;;;5055383;28;20403;-69
2022/10/24 14:06:48;;;;;;;;;;;13.20;99.90;;;;;;5055383;28;19908;-69
2022/10/24 14:09:13;;;;;;;;;;;13.20;99.90;;;;;;5037421;28;20423;-69
2022/10/24 14:11:46;;;;;;;;;;;13.10;99.90;;;;;;5055168;28;20381;-69
2022/10/24 14:14:25;;;;;;;;;;;13.10;99.90;;;;;;5053666;28;19917;-70
2022/10/24 14:17:07;;;;;;;;;;;13.00;99.90;;;;;;5055516;28;19913;-70
2022/10/24 14:19:35;;;;;;;;;;;13.00;99.90;;;;;;5055114;28;19909;-70
2022/10/24 14:22:00;;;;;;;;;;;13.00;99.90;;;;;;5054965;28;19925;-70
2022/10/24 14:24:26;;;;;;;;;;;13.00;99.90;;;;;;5055024;28;20297;-70
2022/10/24 14:26:55;;;;;;;;;;;13.00;99.90;;;;;;5054259;28;20385;-70